sensor_id;sensor_type;location;lat;lon;timestamp;P1;durP1;ratioP1;P2;durP2;ratioP2
14665;SDS011;7420;53.574;10.040;2023-03-31T00:01:31;17.52;;;5.50;;
14665;SDS011;7420;53.574;10.040;2023-03-31T00:04:00;23.23;;;6.10;;
14665;SDS011;7420;53.574;10.040;2023-03-31T00:06:29;19.73;;;6.32;;
14665;SDS011;7420;53.574;10.040;2023-03-31T00:08:56;14.68;;;4.85;;
14665;SDS011;7420;53.574;10.040;2023-03-31T00:11:26;13.75;;;5.07;;
14665;SDS011;7420;53.574;10.040;2023-03-31T00:13:51;15.38;;;4.93;;
14665;SDS011;7420;53.574;10.040;2023-03-31T00:16:17;17.98;;;5.20;;
14665;SDS011;7420;53.574;10.040;2023-03-31T00:18:42;16.92;;;4.72;;
14665;SDS011;7420;53.574;10.040;2023-03-31T00:21:23;16.52;;;5.95;;
14665;SDS011;7420;53.574;10.040;2023-03-31T00:23:50;13.05;;;4.95;;
14665;SDS011;7420;53.574;10.040;2023-03-31T00:26:17;14.63;;;5.10;;
14665;SDS011;7420;53.574;10.040;2023-03-31T00:28:42;19.98;;;5.00;;
14665;SDS011;7420;53.574;10.040;2023-03-31T00:31:07;20.85;;;5.72;;
14665;SDS011;7420;53.574;10.040;2023-03-31T00:33:33;15.25;;;4.65;;
14665;SDS011;7420;53.574;10.040;2023-03-31T00:35:58;13.00;;;4.18;;
14665;SDS011;7420;53.574;10.040;2023-03-31T00:38:30;13.98;;;4.18;;
14665;SDS011;7420;53.574;10.040;2023-03-31T00:40:56;15.30;;;4.00;;
14665;SDS011;7420;53.574;10.040;2023-03-31T00:43:24;14.60;;;4.70;;
14665;SDS011;7420;53.574;10.040;2023-03-31T00:48:51;20.75;;;4.70;;
14665;SDS011;7420;53.574;10.040;2023-03-31T00:51:21;14.93;;;4.65;;
14665;SDS011;7420;53.574;10.040;2023-03-31T00:53:51;19.02;;;4.65;;
14665;SDS011;7420;53.574;10.040;2023-03-31T00:56:21;18.38;;;4.57;;
14665;SDS011;7420;53.574;10.040;2023-03-31T00:58:48;18.30;;;5.57;;
14665;SDS011;7420;53.574;10.040;2023-03-31T01:01:17;23.92;;;5.32;;
14665;SDS011;7420;53.574;10.040;2023-03-31T01:03:45;14.27;;;4.10;;
14665;SDS011;7420;53.574;10.040;2023-03-31T01:06:12;13.95;;;3.45;;
14665;SDS011;7420;53.574;10.040;2023-03-31T01:08:40;17.45;;;4.60;;
14665;SDS011;7420;53.574;10.040;2023-03-31T01:11:08;20.95;;;4.20;;
14665;SDS011;7420;53.574;10.040;2023-03-31T01:13:36;16.73;;;5.03;;
14665;SDS011;7420;53.574;10.040;2023-03-31T01:16:03;12.27;;;4.25;;
14665;SDS011;7420;53.574;10.040;2023-03-31T01:18:29;14.88;;;4.32;;
14665;SDS011;7420;53.574;10.040;2023-03-31T01:21:17;20.73;;;5.00;;
14665;SDS011;7420;53.574;10.040;2023-03-31T01:29:50;14.20;;;3.75;;
14665;SDS011;7420;53.574;10.040;2023-03-31T01:46:52;11.30;;;4.60;;
14665;SDS011;7420;53.574;10.040;2023-03-31T01:54:56;13.98;;;3.95;;
14665;SDS011;7420;53.574;10.040;2023-03-31T01:57:26;10.75;;;4.20;;
14665;SDS011;7420;53.574;10.040;2023-03-31T02:00:07;16.52;;;4.50;;
14665;SDS011;7420;53.574;10.040;2023-03-31T02:02:44;12.75;;;4.45;;
14665;SDS011;7420;53.574;10.040;2023-03-31T02:05:23;16.38;;;4.50;;
14665;SDS011;7420;53.574;10.040;2023-03-31T02:07:51;12.02;;;3.90;;
14665;SDS011;7420;53.574;10.040;2023-03-31T02:10:20;17.63;;;5.55;;
14665;SDS011;7420;53.574;10.040;2023-03-31T02:12:48;12.98;;;3.90;;
14665;SDS011;7420;53.574;10.040;2023-03-31T02:15:17;12.60;;;4.60;;
14665;SDS011;7420;53.574;10.040;2023-03-31T02:17:46;13.70;;;4.05;;
14665;SDS011;7420;53.574;10.040;2023-03-31T02:20:15;15.52;;;4.90;;
14665;SDS011;7420;53.574;10.040;2023-03-31T02:22:44;13.43;;;5.80;;
14665;SDS011;7420;53.574;10.040;2023-03-31T02:25:15;11.55;;;4.63;;
14665;SDS011;7420;53.574;10.040;2023-03-31T02:27:44;15.27;;;5.22;;
14665;SDS011;7420;53.574;10.040;2023-03-31T02:30:13;21.42;;;5.97;;
14665;SDS011;7420;53.574;10.040;2023-03-31T02:32:42;9.88;;;5.25;;
14665;SDS011;7420;53.574;10.040;2023-03-31T02:35:10;20.92;;;8.13;;
14665;SDS011;7420;53.574;10.040;2023-03-31T02:37:39;13.30;;;5.15;;
14665;SDS011;7420;53.574;10.040;2023-03-31T02:40:07;16.77;;;6.60;;
14665;SDS011;7420;53.574;10.040;2023-03-31T02:42:37;14.52;;;5.90;;
14665;SDS011;7420;53.574;10.040;2023-03-31T02:45:03;12.30;;;5.57;;
14665;SDS011;7420;53.574;10.040;2023-03-31T02:47:31;17.83;;;6.00;;
14665;SDS011;7420;53.574;10.040;2023-03-31T02:49:58;14.05;;;6.38;;
14665;SDS011;7420;53.574;10.040;2023-03-31T02:55:28;21.23;;;6.35;;
14665;SDS011;7420;53.574;10.040;2023-03-31T03:09:08;12.57;;;5.97;;
14665;SDS011;7420;53.574;10.040;2023-03-31T03:14:30;13.15;;;5.85;;
14665;SDS011;7420;53.574;10.040;2023-03-31T03:17:05;12.32;;;6.03;;
14665;SDS011;7420;53.574;10.040;2023-03-31T03:19:33;14.30;;;5.85;;
14665;SDS011;7420;53.574;10.040;2023-03-31T03:21:58;11.95;;;5.68;;
14665;SDS011;7420;53.574;10.040;2023-03-31T03:24:24;22.10;;;7.03;;
14665;SDS011;7420;53.574;10.040;2023-03-31T03:26:53;18.42;;;6.00;;
14665;SDS011;7420;53.574;10.040;2023-03-31T03:29:20;16.67;;;6.50;;
14665;SDS011;7420;53.574;10.040;2023-03-31T03:31:45;12.68;;;5.50;;
14665;SDS011;7420;53.574;10.040;2023-03-31T03:34:11;18.27;;;6.32;;
14665;SDS011;7420;53.574;10.040;2023-03-31T03:36:37;13.10;;;5.90;;
14665;SDS011;7420;53.574;10.040;2023-03-31T03:39:03;11.77;;;5.57;;
14665;SDS011;7420;53.574;10.040;2023-03-31T03:41:31;14.43;;;5.43;;
14665;SDS011;7420;53.574;10.040;2023-03-31T03:43:57;10.55;;;6.07;;
14665;SDS011;7420;53.574;10.040;2023-03-31T03:46:23;16.35;;;5.70;;
14665;SDS011;7420;53.574;10.040;2023-03-31T03:48:48;16.80;;;5.53;;
14665;SDS011;7420;53.574;10.040;2023-03-31T03:51:13;9.13;;;4.85;;
14665;SDS011;7420;53.574;10.040;2023-03-31T03:53:39;13.27;;;5.50;;
14665;SDS011;7420;53.574;10.040;2023-03-31T03:56:05;16.52;;;4.95;;
14665;SDS011;7420;53.574;10.040;2023-03-31T03:58:30;21.08;;;6.43;;
14665;SDS011;7420;53.574;10.040;2023-03-31T04:00:55;15.18;;;5.80;;
14665;SDS011;7420;53.574;10.040;2023-03-31T04:03:21;9.70;;;6.15;;
14665;SDS011;7420;53.574;10.040;2023-03-31T04:05:47;18.17;;;6.68;;
14665;SDS011;7420;53.574;10.040;2023-03-31T04:08:16;14.00;;;5.50;;
14665;SDS011;7420;53.574;10.040;2023-03-31T04:10:43;17.65;;;7.00;;
14665;SDS011;7420;53.574;10.040;2023-03-31T04:13:13;20.48;;;5.35;;
14665;SDS011;7420;53.574;10.040;2023-03-31T04:15:42;17.55;;;5.65;;
14665;SDS011;7420;53.574;10.040;2023-03-31T04:18:08;17.30;;;5.82;;
14665;SDS011;7420;53.574;10.040;2023-03-31T04:20:47;14.52;;;5.57;;
14665;SDS011;7420;53.574;10.040;2023-03-31T04:23:31;16.50;;;7.18;;
14665;SDS011;7420;53.574;10.040;2023-03-31T04:25:57;15.38;;;6.38;;
14665;SDS011;7420;53.574;10.040;2023-03-31T04:28:23;15.00;;;6.55;;
14665;SDS011;7420;53.574;10.040;2023-03-31T04:30:50;14.48;;;6.70;;
14665;SDS011;7420;53.574;10.040;2023-03-31T04:33:19;13.82;;;5.95;;
14665;SDS011;7420;53.574;10.040;2023-03-31T04:35:45;16.38;;;6.50;;
14665;SDS011;7420;53.574;10.040;2023-03-31T04:38:17;18.00;;;7.28;;
14665;SDS011;7420;53.574;10.040;2023-03-31T04:40:48;20.95;;;7.75;;
14665;SDS011;7420;53.574;10.040;2023-03-31T04:43:15;17.67;;;7.90;;
14665;SDS011;7420;53.574;10.040;2023-03-31T04:45:42;16.08;;;7.38;;
14665;SDS011;7420;53.574;10.040;2023-03-31T04:48:08;14.00;;;7.50;;
14665;SDS011;7420;53.574;10.040;2023-03-31T04:50:34;19.05;;;6.78;;
14665;SDS011;7420;53.574;10.040;2023-03-31T04:53:01;18.35;;;8.30;;
14665;SDS011;7420;53.574;10.040;2023-03-31T04:55:27;16.38;;;7.10;;
14665;SDS011;7420;53.574;10.040;2023-03-31T04:57:53;17.50;;;7.72;;
14665;SDS011;7420;53.574;10.040;2023-03-31T05:00:18;15.15;;;7.85;;
14665;SDS011;7420;53.574;10.040;2023-03-31T05:02:44;17.85;;;6.95;;
14665;SDS011;7420;53.574;10.040;2023-03-31T05:05:09;21.23;;;9.88;;
14665;SDS011;7420;53.574;10.040;2023-03-31T05:07:35;14.70;;;7.85;;
14665;SDS011;7420;53.574;10.040;2023-03-31T05:10:00;22.60;;;8.15;;
14665;SDS011;7420;53.574;10.040;2023-03-31T05:12:26;17.00;;;8.57;;
14665;SDS011;7420;53.574;10.040;2023-03-31T05:14:51;17.58;;;8.18;;
14665;SDS011;7420;53.574;10.040;2023-03-31T05:17:17;17.20;;;8.35;;
14665;SDS011;7420;53.574;10.040;2023-03-31T05:19:42;16.30;;;8.50;;
14665;SDS011;7420;53.574;10.040;2023-03-31T05:22:08;21.25;;;9.20;;
14665;SDS011;7420;53.574;10.040;2023-03-31T05:24:34;18.88;;;7.80;;
14665;SDS011;7420;53.574;10.040;2023-03-31T05:26:59;19.20;;;8.00;;
14665;SDS011;7420;53.574;10.040;2023-03-31T05:29:24;16.98;;;8.07;;
14665;SDS011;7420;53.574;10.040;2023-03-31T05:31:50;15.45;;;8.00;;
14665;SDS011;7420;53.574;10.040;2023-03-31T05:34:17;19.33;;;8.57;;
14665;SDS011;7420;53.574;10.040;2023-03-31T05:36:42;15.73;;;7.80;;
14665;SDS011;7420;53.574;10.040;2023-03-31T05:39:08;22.50;;;8.98;;
14665;SDS011;7420;53.574;10.040;2023-03-31T05:41:33;19.10;;;8.80;;
14665;SDS011;7420;53.574;10.040;2023-03-31T05:43:59;15.70;;;7.68;;
14665;SDS011;7420;53.574;10.040;2023-03-31T05:46:26;13.35;;;7.70;;
14665;SDS011;7420;53.574;10.040;2023-03-31T05:48:51;18.92;;;8.43;;
14665;SDS011;7420;53.574;10.040;2023-03-31T05:51:17;18.02;;;8.48;;
14665;SDS011;7420;53.574;10.040;2023-03-31T05:53:42;17.25;;;7.68;;
14665;SDS011;7420;53.574;10.040;2023-03-31T05:56:08;23.75;;;8.52;;
14665;SDS011;7420;53.574;10.040;2023-03-31T05:58:34;17.30;;;7.78;;
14665;SDS011;7420;53.574;10.040;2023-03-31T06:01:11;18.58;;;7.88;;
14665;SDS011;7420;53.574;10.040;2023-03-31T06:03:40;18.52;;;8.45;;
14665;SDS011;7420;53.574;10.040;2023-03-31T06:06:06;11.52;;;5.85;;
14665;SDS011;7420;53.574;10.040;2023-03-31T06:08:32;20.05;;;7.80;;
14665;SDS011;7420;53.574;10.040;2023-03-31T06:10:58;17.23;;;8.70;;
14665;SDS011;7420;53.574;10.040;2023-03-31T06:13:24;15.48;;;7.45;;
14665;SDS011;7420;53.574;10.040;2023-03-31T06:15:56;16.27;;;8.32;;
14665;SDS011;7420;53.574;10.040;2023-03-31T06:18:23;18.65;;;7.45;;
14665;SDS011;7420;53.574;10.040;2023-03-31T06:20:49;14.55;;;7.47;;
14665;SDS011;7420;53.574;10.040;2023-03-31T06:23:16;23.25;;;8.35;;
14665;SDS011;7420;53.574;10.040;2023-03-31T06:25:41;13.80;;;7.65;;
14665;SDS011;7420;53.574;10.040;2023-03-31T06:28:06;17.77;;;6.97;;
14665;SDS011;7420;53.574;10.040;2023-03-31T06:30:32;15.63;;;6.43;;
14665;SDS011;7420;53.574;10.040;2023-03-31T06:32:58;13.60;;;6.18;;
14665;SDS011;7420;53.574;10.040;2023-03-31T06:35:23;13.55;;;6.32;;
14665;SDS011;7420;53.574;10.040;2023-03-31T06:37:48;12.43;;;7.75;;
14665;SDS011;7420;53.574;10.040;2023-03-31T06:40:14;11.38;;;6.45;;
14665;SDS011;7420;53.574;10.040;2023-03-31T06:42:39;16.92;;;6.35;;
14665;SDS011;7420;53.574;10.040;2023-03-31T06:45:05;17.42;;;6.38;;
14665;SDS011;7420;53.574;10.040;2023-03-31T06:47:31;9.73;;;5.85;;
14665;SDS011;7420;53.574;10.040;2023-03-31T06:49:56;12.38;;;6.40;;
14665;SDS011;7420;53.574;10.040;2023-03-31T06:52:21;11.43;;;5.70;;
14665;SDS011;7420;53.574;10.040;2023-03-31T06:54:47;11.05;;;5.93;;
14665;SDS011;7420;53.574;10.040;2023-03-31T06:57:12;21.48;;;7.40;;
14665;SDS011;7420;53.574;10.040;2023-03-31T06:59:37;12.65;;;5.32;;
14665;SDS011;7420;53.574;10.040;2023-03-31T07:02:03;12.20;;;6.50;;
14665;SDS011;7420;53.574;10.040;2023-03-31T07:04:28;13.73;;;6.05;;
14665;SDS011;7420;53.574;10.040;2023-03-31T07:06:54;15.18;;;6.15;;
14665;SDS011;7420;53.574;10.040;2023-03-31T07:09:19;16.52;;;7.28;;
14665;SDS011;7420;53.574;10.040;2023-03-31T07:11:47;21.77;;;7.47;;
14665;SDS011;7420;53.574;10.040;2023-03-31T07:14:12;12.00;;;6.63;;
14665;SDS011;7420;53.574;10.040;2023-03-31T07:16:38;13.18;;;6.53;;
14665;SDS011;7420;53.574;10.040;2023-03-31T07:19:03;12.80;;;6.10;;
14665;SDS011;7420;53.574;10.040;2023-03-31T07:21:30;19.38;;;8.70;;
14665;SDS011;7420;53.574;10.040;2023-03-31T07:23:56;13.48;;;6.55;;
14665;SDS011;7420;53.574;10.040;2023-03-31T07:26:21;12.13;;;5.72;;
14665;SDS011;7420;53.574;10.040;2023-03-31T07:28:47;15.60;;;7.10;;
14665;SDS011;7420;53.574;10.040;2023-03-31T07:31:13;16.63;;;7.63;;
14665;SDS011;7420;53.574;10.040;2023-03-31T07:33:39;19.35;;;7.38;;
14665;SDS011;7420;53.574;10.040;2023-03-31T07:36:05;14.38;;;6.43;;
14665;SDS011;7420;53.574;10.040;2023-03-31T07:38:31;14.18;;;6.85;;
14665;SDS011;7420;53.574;10.040;2023-03-31T07:40:56;11.05;;;6.32;;
14665;SDS011;7420;53.574;10.040;2023-03-31T07:43:21;19.80;;;7.45;;
14665;SDS011;7420;53.574;10.040;2023-03-31T07:45:47;15.82;;;6.32;;
14665;SDS011;7420;53.574;10.040;2023-03-31T07:48:12;15.35;;;6.80;;
14665;SDS011;7420;53.574;10.040;2023-03-31T07:50:38;13.35;;;6.50;;
14665;SDS011;7420;53.574;10.040;2023-03-31T07:53:03;16.23;;;6.03;;
14665;SDS011;7420;53.574;10.040;2023-03-31T07:55:28;13.82;;;6.40;;
14665;SDS011;7420;53.574;10.040;2023-03-31T07:57:54;14.55;;;6.47;;
14665;SDS011;7420;53.574;10.040;2023-03-31T08:00:19;11.75;;;6.70;;
14665;SDS011;7420;53.574;10.040;2023-03-31T08:02:45;14.50;;;6.72;;
14665;SDS011;7420;53.574;10.040;2023-03-31T08:05:11;15.57;;;6.35;;
14665;SDS011;7420;53.574;10.040;2023-03-31T08:07:38;12.73;;;6.15;;
14665;SDS011;7420;53.574;10.040;2023-03-31T08:10:06;12.75;;;6.68;;
14665;SDS011;7420;53.574;10.040;2023-03-31T08:12:33;13.65;;;6.20;;
14665;SDS011;7420;53.574;10.040;2023-03-31T08:14:59;10.75;;;6.45;;
14665;SDS011;7420;53.574;10.040;2023-03-31T08:17:25;17.42;;;6.80;;
14665;SDS011;7420;53.574;10.040;2023-03-31T08:19:50;22.48;;;8.30;;
14665;SDS011;7420;53.574;10.040;2023-03-31T08:22:16;17.77;;;8.65;;
14665;SDS011;7420;53.574;10.040;2023-03-31T08:24:41;17.63;;;6.70;;
14665;SDS011;7420;53.574;10.040;2023-03-31T08:27:07;15.77;;;7.30;;
14665;SDS011;7420;53.574;10.040;2023-03-31T08:29:32;12.35;;;6.97;;
14665;SDS011;7420;53.574;10.040;2023-03-31T08:31:58;11.98;;;6.40;;
14665;SDS011;7420;53.574;10.040;2023-03-31T08:34:23;8.73;;;5.88;;
14665;SDS011;7420;53.574;10.040;2023-03-31T08:36:49;12.63;;;7.30;;
14665;SDS011;7420;53.574;10.040;2023-03-31T08:39:15;11.18;;;5.68;;
14665;SDS011;7420;53.574;10.040;2023-03-31T08:47:23;16.90;;;7.73;;
14665;SDS011;7420;53.574;10.040;2023-03-31T08:49:54;12.77;;;6.38;;
14665;SDS011;7420;53.574;10.040;2023-03-31T08:52:30;8.65;;;5.30;;
14665;SDS011;7420;53.574;10.040;2023-03-31T08:55:02;11.32;;;5.63;;
14665;SDS011;7420;53.574;10.040;2023-03-31T08:57:39;7.18;;;4.82;;
14665;SDS011;7420;53.574;10.040;2023-03-31T09:00:18;12.05;;;5.40;;
14665;SDS011;7420;53.574;10.040;2023-03-31T09:03:48;6.95;;;4.65;;
14665;SDS011;7420;53.574;10.040;2023-03-31T09:05:53;9.90;;;4.88;;
14665;SDS011;7420;53.574;10.040;2023-03-31T09:08:32;15.40;;;5.38;;
14665;SDS011;7420;53.574;10.040;2023-03-31T09:11:03;11.95;;;5.00;;
14665;SDS011;7420;53.574;10.040;2023-03-31T09:16:34;7.95;;;4.22;;
14665;SDS011;7420;53.574;10.040;2023-03-31T09:19:09;9.88;;;5.35;;
14665;SDS011;7420;53.574;10.040;2023-03-31T09:21:48;10.07;;;5.50;;
14665;SDS011;7420;53.574;10.040;2023-03-31T09:24:18;10.85;;;5.72;;
14665;SDS011;7420;53.574;10.040;2023-03-31T09:26:51;9.20;;;5.30;;
14665;SDS011;7420;53.574;10.040;2023-03-31T09:30:12;7.32;;;5.03;;
14665;SDS011;7420;53.574;10.040;2023-03-31T09:32:24;8.75;;;5.15;;
14665;SDS011;7420;53.574;10.040;2023-03-31T09:34:54;13.02;;;7.50;;
14665;SDS011;7420;53.574;10.040;2023-03-31T09:37:21;15.32;;;5.43;;
14665;SDS011;7420;53.574;10.040;2023-03-31T09:39:51;13.57;;;5.47;;
14665;SDS011;7420;53.574;10.040;2023-03-31T09:42:16;13.05;;;6.15;;
14665;SDS011;7420;53.574;10.040;2023-03-31T09:44:43;19.08;;;9.50;;
14665;SDS011;7420;53.574;10.040;2023-03-31T09:47:25;13.80;;;5.38;;
14665;SDS011;7420;53.574;10.040;2023-03-31T09:49:56;12.18;;;6.32;;
14665;SDS011;7420;53.574;10.040;2023-03-31T09:54:58;10.82;;;4.68;;
14665;SDS011;7420;53.574;10.040;2023-03-31T09:57:27;14.52;;;5.28;;
14665;SDS011;7420;53.574;10.040;2023-03-31T10:00:04;8.15;;;4.28;;
14665;SDS011;7420;53.574;10.040;2023-03-31T10:02:39;8.00;;;4.93;;
14665;SDS011;7420;53.574;10.040;2023-03-31T10:05:21;10.93;;;4.55;;
14665;SDS011;7420;53.574;10.040;2023-03-31T10:07:52;9.85;;;4.55;;
14665;SDS011;7420;53.574;10.040;2023-03-31T10:10:33;8.05;;;4.50;;
14665;SDS011;7420;53.574;10.040;2023-03-31T10:12:59;7.75;;;4.60;;
14665;SDS011;7420;53.574;10.040;2023-03-31T10:15:32;7.13;;;4.43;;
14665;SDS011;7420;53.574;10.040;2023-03-31T10:18:02;12.35;;;6.43;;
14665;SDS011;7420;53.574;10.040;2023-03-31T10:20:37;9.02;;;5.00;;
14665;SDS011;7420;53.574;10.040;2023-03-31T10:23:23;11.27;;;5.05;;
14665;SDS011;7420;53.574;10.040;2023-03-31T10:25:52;8.32;;;5.18;;
14665;SDS011;7420;53.574;10.040;2023-03-31T10:28:18;11.27;;;4.82;;
14665;SDS011;7420;53.574;10.040;2023-03-31T10:30:49;11.98;;;4.82;;
14665;SDS011;7420;53.574;10.040;2023-03-31T10:33:17;8.80;;;4.95;;
14665;SDS011;7420;53.574;10.040;2023-03-31T10:35:47;12.48;;;5.97;;
14665;SDS011;7420;53.574;10.040;2023-03-31T10:38:16;9.18;;;4.50;;
14665;SDS011;7420;53.574;10.040;2023-03-31T10:41:04;9.52;;;5.03;;
14665;SDS011;7420;53.574;10.040;2023-03-31T10:43:40;11.00;;;4.88;;
14665;SDS011;7420;53.574;10.040;2023-03-31T10:46:07;8.30;;;4.97;;
14665;SDS011;7420;53.574;10.040;2023-03-31T10:48:34;8.90;;;5.00;;
14665;SDS011;7420;53.574;10.040;2023-03-31T10:51:15;12.68;;;4.82;;
14665;SDS011;7420;53.574;10.040;2023-03-31T10:54:00;7.18;;;4.40;;
14665;SDS011;7420;53.574;10.040;2023-03-31T11:12:43;6.68;;;3.97;;
14665;SDS011;7420;53.574;10.040;2023-03-31T11:35:49;9.38;;;5.03;;
14665;SDS011;7420;53.574;10.040;2023-03-31T11:38:26;8.20;;;3.83;;
14665;SDS011;7420;53.574;10.040;2023-03-31T11:41:07;5.85;;;3.55;;
14665;SDS011;7420;53.574;10.040;2023-03-31T11:51:41;8.27;;;4.70;;
14665;SDS011;7420;53.574;10.040;2023-03-31T11:54:17;16.25;;;8.02;;
14665;SDS011;7420;53.574;10.040;2023-03-31T11:56:48;6.95;;;4.00;;
14665;SDS011;7420;53.574;10.040;2023-03-31T11:59:14;13.18;;;6.45;;
14665;SDS011;7420;53.574;10.040;2023-03-31T12:01:50;16.95;;;9.55;;
14665;SDS011;7420;53.574;10.040;2023-03-31T12:06:49;7.53;;;4.45;;
14665;SDS011;7420;53.574;10.040;2023-03-31T12:09:21;8.90;;;4.68;;
14665;SDS011;7420;53.574;10.040;2023-03-31T12:12:02;13.15;;;7.38;;
14665;SDS011;7420;53.574;10.040;2023-03-31T12:14:38;12.23;;;5.85;;
14665;SDS011;7420;53.574;10.040;2023-03-31T12:17:10;6.68;;;3.70;;
14665;SDS011;7420;53.574;10.040;2023-03-31T12:19:48;9.30;;;5.57;;
14665;SDS011;7420;53.574;10.040;2023-03-31T12:24:51;7.07;;;4.60;;
14665;SDS011;7420;53.574;10.040;2023-03-31T12:32:50;9.95;;;5.30;;
14665;SDS011;7420;53.574;10.040;2023-03-31T12:35:21;11.48;;;6.85;;
14665;SDS011;7420;53.574;10.040;2023-03-31T12:59:40;10.40;;;7.45;;
14665;SDS011;7420;53.574;10.040;2023-03-31T13:04:36;12.90;;;7.40;;
14665;SDS011;7420;53.574;10.040;2023-03-31T13:07:03;12.65;;;7.47;;
14665;SDS011;7420;53.574;10.040;2023-03-31T13:11:55;8.57;;;6.20;;
14665;SDS011;7420;53.574;10.040;2023-03-31T13:14:31;10.57;;;5.80;;
14665;SDS011;7420;53.574;10.040;2023-03-31T13:19:45;9.18;;;6.05;;
14665;SDS011;7420;53.574;10.040;2023-03-31T13:22:27;7.50;;;4.93;;
14665;SDS011;7420;53.574;10.040;2023-03-31T13:24:52;10.57;;;6.05;;
14665;SDS011;7420;53.574;10.040;2023-03-31T13:27:32;11.52;;;5.70;;
14665;SDS011;7420;53.574;10.040;2023-03-31T13:29:58;10.30;;;5.43;;
14665;SDS011;7420;53.574;10.040;2023-03-31T13:32:24;11.55;;;6.03;;
14665;SDS011;7420;53.574;10.040;2023-03-31T13:35:06;9.50;;;6.15;;
14665;SDS011;7420;53.574;10.040;2023-03-31T13:37:52;9.90;;;5.43;;
14665;SDS011;7420;53.574;10.040;2023-03-31T13:46:17;22.52;;;12.18;;
14665;SDS011;7420;53.574;10.040;2023-03-31T13:51:48;6.53;;;4.65;;
14665;SDS011;7420;53.574;10.040;2023-03-31T13:57:37;5.72;;;4.07;;
14665;SDS011;7420;53.574;10.040;2023-03-31T14:10:27;5.70;;;4.05;;
14665;SDS011;7420;53.574;10.040;2023-03-31T14:13:03;4.05;;;3.47;;
14665;SDS011;7420;53.574;10.040;2023-03-31T14:15:47;4.18;;;3.10;;
14665;SDS011;7420;53.574;10.040;2023-03-31T14:18:17;4.40;;;3.35;;
14665;SDS011;7420;53.574;10.040;2023-03-31T14:21:02;5.85;;;4.10;;
14665;SDS011;7420;53.574;10.040;2023-03-31T14:26:37;6.07;;;3.47;;
14665;SDS011;7420;53.574;10.040;2023-03-31T14:32:17;5.60;;;3.53;;
14665;SDS011;7420;53.574;10.040;2023-03-31T14:35:40;4.50;;;3.20;;
14665;SDS011;7420;53.574;10.040;2023-03-31T14:37:53;6.75;;;3.90;;
14665;SDS011;7420;53.574;10.040;2023-03-31T14:40:20;5.28;;;3.08;;
14665;SDS011;7420;53.574;10.040;2023-03-31T14:42:46;4.30;;;3.08;;
14665;SDS011;7420;53.574;10.040;2023-03-31T14:45:22;4.20;;;3.67;;
14665;SDS011;7420;53.574;10.040;2023-03-31T14:50:26;6.82;;;2.47;;
14665;SDS011;7420;53.574;10.040;2023-03-31T14:52:58;4.15;;;3.20;;
14665;SDS011;7420;53.574;10.040;2023-03-31T14:55:26;4.07;;;3.05;;
14665;SDS011;7420;53.574;10.040;2023-03-31T14:57:53;5.10;;;3.33;;
14665;SDS011;7420;53.574;10.040;2023-03-31T15:00:26;7.22;;;3.63;;
14665;SDS011;7420;53.574;10.040;2023-03-31T15:02:56;4.43;;;3.75;;
14665;SDS011;7420;53.574;10.040;2023-03-31T15:05:24;5.88;;;3.67;;
14665;SDS011;7420;53.574;10.040;2023-03-31T15:08:36;9.63;;;5.80;;
14665;SDS011;7420;53.574;10.040;2023-03-31T15:10:50;5.28;;;3.85;;
14665;SDS011;7420;53.574;10.040;2023-03-31T15:13:40;5.75;;;3.95;;
14665;SDS011;7420;53.574;10.040;2023-03-31T15:19:19;4.40;;;2.95;;
14665;SDS011;7420;53.574;10.040;2023-03-31T15:21:57;4.07;;;2.50;;
14665;SDS011;7420;53.574;10.040;2023-03-31T15:24:27;2.65;;;2.30;;
14665;SDS011;7420;53.574;10.040;2023-03-31T15:29:24;3.10;;;2.20;;
14665;SDS011;7420;53.574;10.040;2023-03-31T15:31:56;4.25;;;2.42;;
14665;SDS011;7420;53.574;10.040;2023-03-31T15:34:26;3.83;;;2.13;;
14665;SDS011;7420;53.574;10.040;2023-03-31T15:36:58;3.95;;;2.03;;
14665;SDS011;7420;53.574;10.040;2023-03-31T15:39:25;2.17;;;1.80;;
14665;SDS011;7420;53.574;10.040;2023-03-31T15:41:55;3.65;;;2.00;;
14665;SDS011;7420;53.574;10.040;2023-03-31T15:47:21;4.43;;;2.20;;
14665;SDS011;7420;53.574;10.040;2023-03-31T15:52:30;1.90;;;1.70;;
14665;SDS011;7420;53.574;10.040;2023-03-31T15:54:59;2.60;;;1.92;;
14665;SDS011;7420;53.574;10.040;2023-03-31T15:57:34;2.45;;;1.80;;
14665;SDS011;7420;53.574;10.040;2023-03-31T16:00:14;4.82;;;2.03;;
14665;SDS011;7420;53.574;10.040;2023-03-31T16:05:51;3.55;;;2.22;;
14665;SDS011;7420;53.574;10.040;2023-03-31T16:11:32;5.45;;;2.47;;
14665;SDS011;7420;53.574;10.040;2023-03-31T16:14:05;3.05;;;2.13;;
14665;SDS011;7420;53.574;10.040;2023-03-31T16:16:34;5.38;;;2.35;;
14665;SDS011;7420;53.574;10.040;2023-03-31T16:19:07;4.45;;;2.25;;
14665;SDS011;7420;53.574;10.040;2023-03-31T16:21:38;5.45;;;2.72;;
14665;SDS011;7420;53.574;10.040;2023-03-31T16:24:06;4.57;;;3.00;;
14665;SDS011;7420;53.574;10.040;2023-03-31T16:26:32;2.38;;;2.10;;
14665;SDS011;7420;53.574;10.040;2023-03-31T16:28:58;4.10;;;2.45;;
14665;SDS011;7420;53.574;10.040;2023-03-31T16:34:05;2.75;;;1.90;;
14665;SDS011;7420;53.574;10.040;2023-03-31T16:36:31;3.28;;;2.03;;
14665;SDS011;7420;53.574;10.040;2023-03-31T16:38:57;4.72;;;2.95;;
14665;SDS011;7420;53.574;10.040;2023-03-31T16:41:24;4.38;;;2.38;;
14665;SDS011;7420;53.574;10.040;2023-03-31T16:43:52;5.43;;;3.25;;
14665;SDS011;7420;53.574;10.040;2023-03-31T16:46:18;4.07;;;2.33;;
14665;SDS011;7420;53.574;10.040;2023-03-31T16:48:45;3.35;;;2.13;;
14665;SDS011;7420;53.574;10.040;2023-03-31T16:51:10;4.45;;;2.75;;
14665;SDS011;7420;53.574;10.040;2023-03-31T16:53:36;4.82;;;2.80;;
14665;SDS011;7420;53.574;10.040;2023-03-31T16:56:02;4.88;;;2.80;;
14665;SDS011;7420;53.574;10.040;2023-03-31T16:58:31;4.65;;;2.75;;
14665;SDS011;7420;53.574;10.040;2023-03-31T17:00:57;3.72;;;2.70;;
14665;SDS011;7420;53.574;10.040;2023-03-31T17:03:23;3.60;;;2.92;;
14665;SDS011;7420;53.574;10.040;2023-03-31T17:05:50;5.20;;;3.40;;
14665;SDS011;7420;53.574;10.040;2023-03-31T17:08:17;3.88;;;3.10;;
14665;SDS011;7420;53.574;10.040;2023-03-31T17:10:49;4.28;;;2.53;;
14665;SDS011;7420;53.574;10.040;2023-03-31T17:13:16;7.05;;;4.30;;
14665;SDS011;7420;53.574;10.040;2023-03-31T17:15:42;7.47;;;3.45;;
14665;SDS011;7420;53.574;10.040;2023-03-31T17:18:07;5.45;;;3.30;;
14665;SDS011;7420;53.574;10.040;2023-03-31T17:20:32;8.13;;;4.63;;
14665;SDS011;7420;53.574;10.040;2023-03-31T17:22:58;8.65;;;4.43;;
14665;SDS011;7420;53.574;10.040;2023-03-31T17:25:24;8.13;;;4.45;;
14665;SDS011;7420;53.574;10.040;2023-03-31T17:27:50;15.35;;;8.75;;
14665;SDS011;7420;53.574;10.040;2023-03-31T17:30:15;4.72;;;2.85;;
14665;SDS011;7420;53.574;10.040;2023-03-31T17:32:41;5.78;;;4.55;;
14665;SDS011;7420;53.574;10.040;2023-03-31T17:35:06;6.05;;;2.80;;
14665;SDS011;7420;53.574;10.040;2023-03-31T17:37:34;4.38;;;2.67;;
14665;SDS011;7420;53.574;10.040;2023-03-31T17:40:00;5.10;;;2.92;;
14665;SDS011;7420;53.574;10.040;2023-03-31T17:42:25;20.15;;;3.65;;
14665;SDS011;7420;53.574;10.040;2023-03-31T17:44:51;6.28;;;3.42;;
14665;SDS011;7420;53.574;10.040;2023-03-31T17:47:17;8.30;;;4.68;;
14665;SDS011;7420;53.574;10.040;2023-03-31T17:49:44;11.10;;;5.28;;
14665;SDS011;7420;53.574;10.040;2023-03-31T17:52:10;5.38;;;3.65;;
14665;SDS011;7420;53.574;10.040;2023-03-31T17:54:35;7.40;;;4.43;;
14665;SDS011;7420;53.574;10.040;2023-03-31T17:57:01;5.40;;;3.63;;
14665;SDS011;7420;53.574;10.040;2023-03-31T17:59:27;8.60;;;4.13;;
14665;SDS011;7420;53.574;10.040;2023-03-31T18:01:52;7.45;;;4.35;;
14665;SDS011;7420;53.574;10.040;2023-03-31T18:04:18;7.85;;;4.35;;